createdAt,value
2023-02-23T00:01:28.108Z,0.00
2023-02-23T00:03:57.804Z,0.00
2023-02-23T00:06:30.006Z,0.00
2023-02-23T00:09:01.321Z,0.10
2023-02-23T00:11:30.356Z,0.20
2023-02-23T00:13:59.123Z,0.20
2023-02-23T00:16:27.821Z,0.10
2023-02-23T00:19:00.653Z,0.10
2023-02-23T00:21:32.535Z,0.00
2023-02-23T00:24:03.123Z,0.00
2023-02-23T00:26:35.318Z,0.00
2023-02-23T00:29:06.370Z,0.00
2023-02-23T00:31:35.419Z,0.00
2023-02-23T00:34:05.651Z,-0.10
2023-02-23T00:36:37.676Z,-0.10
2023-02-23T00:39:18.306Z,-0.10
2023-02-23T00:41:47.700Z,-0.20
2023-02-23T00:44:16.747Z,-0.20
2023-02-23T00:46:49.310Z,-0.30
2023-02-23T00:49:17.900Z,-0.40
2023-02-23T00:51:48.234Z,-0.40
2023-02-23T00:54:18.253Z,-0.30
2023-02-23T00:56:47.429Z,-0.30
2023-02-23T00:59:16.562Z,-0.20
2023-02-23T01:01:45.639Z,-0.20
2023-02-23T01:04:15.452Z,-0.20
2023-02-23T01:06:44.298Z,-0.20
2023-02-23T01:09:27.341Z,-0.20
2023-02-23T01:11:57.798Z,-0.20
2023-02-23T01:14:26.554Z,-0.20
2023-02-23T01:16:55.272Z,-0.20
2023-02-23T01:19:24.069Z,-0.20
2023-02-23T01:21:52.779Z,-0.20
2023-02-23T01:24:22.732Z,-0.20
2023-02-23T01:26:51.459Z,-0.10
2023-02-23T01:29:20.089Z,-0.10
2023-02-23T01:31:51.395Z,-0.10
2023-02-23T01:34:21.947Z,-0.10
2023-02-23T01:36:51.039Z,-0.10
2023-02-23T01:39:22.395Z,0.00
2023-02-23T01:41:54.376Z,0.00
2023-02-23T01:45:00.345Z,0.00
2023-02-23T01:47:30.044Z,0.00
2023-02-23T01:49:58.871Z,0.00
2023-02-23T01:52:27.709Z,0.10
2023-02-23T01:54:58.345Z,0.10
2023-02-23T01:57:27.291Z,0.00
2023-02-23T01:59:56.954Z,0.00
2023-02-23T02:02:34.071Z,0.10
2023-02-23T02:05:05.238Z,0.10
2023-02-23T02:07:36.442Z,0.10
2023-02-23T02:10:39.683Z,0.00
2023-02-23T02:13:10.687Z,0.00
2023-02-23T02:15:56.327Z,0.00
2023-02-23T02:18:32.490Z,0.00
2023-02-23T02:21:49.342Z,-0.10
2023-02-23T02:24:57.304Z,-0.10
2023-02-23T02:27:45.228Z,-0.10
2023-02-23T02:30:40.848Z,-0.10
2023-02-23T02:33:38.144Z,-0.10
2023-02-23T02:37:05.083Z,-0.10
2023-02-23T02:39:46.773Z,-0.10
2023-02-23T02:42:22.730Z,-0.10
2023-02-23T02:45:00.544Z,-0.10
2023-02-23T02:47:34.063Z,-0.20
2023-02-23T02:50:08.709Z,-0.20
2023-02-23T02:52:41.764Z,-0.20
2023-02-23T02:55:16.824Z,-0.30
2023-02-23T02:57:47.563Z,-0.50
2023-02-23T03:00:37.561Z,-0.60
2023-02-23T03:03:23.938Z,-0.70
2023-02-23T03:06:13.369Z,-0.80
2023-02-23T03:09:07.432Z,-0.80
2023-02-23T03:11:59.199Z,-0.90
2023-02-23T03:14:52.397Z,-0.70
2023-02-23T03:17:48.835Z,-0.50
2023-02-23T03:20:43.341Z,-0.40
2023-02-23T03:23:36.049Z,-0.30
2023-02-23T03:26:27.843Z,-0.30
2023-02-23T03:29:22.368Z,-0.40
2023-02-23T03:32:16.400Z,-0.50
2023-02-23T03:35:05.728Z,-0.60
2023-02-23T03:37:58.650Z,-0.70
2023-02-23T03:40:48.366Z,-0.80
2023-02-23T03:43:37.901Z,-0.90
2023-02-23T03:46:29.616Z,-1.10
2023-02-23T03:49:18.999Z,-1.20
2023-02-23T03:52:09.314Z,-1.30
2023-02-23T03:55:11.708Z,-1.40
2023-02-23T03:58:00.211Z,-1.50
2023-02-23T04:00:49.593Z,-1.50
2023-02-23T04:03:38.471Z,-1.60
2023-02-23T04:06:27.428Z,-1.70
2023-02-23T04:09:18.104Z,-1.70
2023-02-23T04:12:09.440Z,-1.80
2023-02-23T04:14:41.601Z,-1.90
2023-02-23T04:17:10.391Z,-1.90
2023-02-23T04:19:40.575Z,-2.00
2023-02-23T04:22:09.155Z,-2.00
2023-02-23T04:24:37.735Z,-2.00
2023-02-23T04:27:06.533Z,-1.80
2023-02-23T04:29:35.172Z,-1.70
2023-02-23T04:32:03.808Z,-1.50
2023-02-23T04:34:32.872Z,-1.40
2023-02-23T04:37:02.923Z,-1.20
2023-02-23T04:39:31.550Z,-1.10
2023-02-23T04:42:00.092Z,-1.00
2023-02-23T04:44:31.093Z,-0.90
2023-02-23T04:47:00.300Z,-0.80
2023-02-23T04:49:28.850Z,-0.70
2023-02-23T04:51:57.521Z,-0.60
2023-02-23T04:54:27.764Z,-0.50
2023-02-23T04:56:56.432Z,-0.40
2023-02-23T04:59:25.080Z,-0.30
2023-02-23T05:01:53.655Z,-0.30
2023-02-23T05:04:22.199Z,-0.20
2023-02-23T05:06:50.754Z,-0.20
2023-02-23T05:09:19.271Z,-0.10
2023-02-23T05:11:49.459Z,-0.20
2023-02-23T05:14:17.969Z,-0.10
2023-02-23T05:16:46.552Z,-0.20
2023-02-23T05:19:15.149Z,-0.20
2023-02-23T05:21:43.840Z,-0.20
2023-02-23T05:24:12.723Z,-0.10
2023-02-23T05:26:41.246Z,-0.10
2023-02-23T05:29:11.227Z,-0.10
2023-02-23T05:31:39.788Z,0.00
2023-02-23T05:34:08.434Z,-0.10
2023-02-23T05:36:37.217Z,-0.10
2023-02-23T05:39:06.050Z,0.00
2023-02-23T05:41:34.580Z,0.10
2023-02-23T05:44:03.074Z,0.00
2023-02-23T05:46:33.058Z,0.00
2023-02-23T05:49:02.942Z,0.10
2023-02-23T05:51:33.880Z,0.10
2023-02-23T05:54:02.624Z,0.20
2023-02-23T05:56:31.434Z,0.20
2023-02-23T05:59:00.516Z,0.30
2023-02-23T06:01:29.677Z,0.30
2023-02-23T06:03:59.678Z,0.40
2023-02-23T06:06:28.653Z,0.40
2023-02-23T06:08:57.416Z,0.40
2023-02-23T06:11:26.037Z,0.40
2023-02-23T06:13:55.454Z,0.40
2023-02-23T06:16:24.416Z,0.50
2023-02-23T06:18:52.994Z,0.50
2023-02-23T06:21:23.146Z,0.50
2023-02-23T06:23:52.605Z,0.60
2023-02-23T06:26:21.955Z,0.70
2023-02-23T06:28:50.824Z,0.70
2023-02-23T06:31:19.664Z,0.70
2023-02-23T06:33:48.919Z,0.70
2023-02-23T06:36:17.797Z,0.80
2023-02-23T06:38:47.703Z,0.90
2023-02-23T06:41:16.312Z,1.00
2023-02-23T06:43:45.025Z,1.00
2023-02-23T06:46:13.574Z,1.00
2023-02-23T06:48:42.459Z,1.00
2023-02-23T06:51:11.173Z,1.00
2023-02-23T06:53:39.720Z,1.10
2023-02-23T06:56:12.440Z,1.10
2023-02-23T06:58:40.999Z,1.00
2023-02-23T07:01:10.141Z,1.10
2023-02-23T07:03:38.683Z,1.00
2023-02-23T07:06:07.488Z,1.10
2023-02-23T07:08:36.854Z,1.10
2023-02-23T07:11:11.471Z,1.10
2023-02-23T07:13:40.048Z,1.10
2023-02-23T07:16:09.668Z,1.10
2023-02-23T07:18:38.206Z,1.10
2023-02-23T07:21:07.974Z,1.10
2023-02-23T07:23:36.539Z,1.20
2023-02-23T07:26:05.168Z,1.20
2023-02-23T07:28:35.098Z,1.20
2023-02-23T07:31:03.749Z,1.20
2023-02-23T07:33:32.742Z,1.30
2023-02-23T07:36:01.382Z,1.30
2023-02-23T07:38:30.335Z,1.30
2023-02-23T07:40:59.148Z,1.30
2023-02-23T07:43:27.781Z,1.30
2023-02-23T07:46:01.067Z,1.40
2023-02-23T07:48:30.253Z,1.50
2023-02-23T07:50:58.917Z,1.60
2023-02-23T07:53:28.170Z,1.90
2023-02-23T07:56:00.944Z,1.80
2023-02-23T07:58:30.808Z,1.90
2023-02-23T08:01:01.479Z,2.00
2023-02-23T08:03:30.224Z,2.10
2023-02-23T08:05:59.022Z,2.10
2023-02-23T08:08:28.343Z,2.10
2023-02-23T08:11:02.292Z,2.10
2023-02-23T08:13:32.065Z,2.20
2023-02-23T08:16:02.147Z,2.40
2023-02-23T08:18:30.930Z,2.50
2023-02-23T08:21:00.644Z,2.50
2023-02-23T08:23:31.139Z,2.60
2023-02-23T08:26:00.882Z,2.60
2023-02-23T08:28:30.611Z,2.60
2023-02-23T08:30:59.646Z,2.50
2023-02-23T08:33:31.798Z,2.50
2023-02-23T08:36:02.938Z,2.40
2023-02-23T08:38:32.003Z,2.60
2023-02-23T08:41:02.335Z,2.70
2023-02-23T08:43:31.157Z,2.90
2023-02-23T08:45:59.989Z,2.90
2023-02-23T08:48:29.996Z,3.00
2023-02-23T08:50:59.082Z,3.00
2023-02-23T08:53:29.779Z,3.00
2023-02-23T08:55:59.620Z,2.90
2023-02-23T08:58:28.503Z,2.90
2023-02-23T09:00:57.052Z,2.90
2023-02-23T09:03:28.689Z,2.80
2023-02-23T09:06:08.568Z,2.90
2023-02-23T09:08:37.236Z,2.90
2023-02-23T09:11:05.928Z,3.00
2023-02-23T09:13:34.763Z,3.00
2023-02-23T09:16:04.022Z,3.10
2023-02-23T09:18:32.820Z,3.10
2023-02-23T09:21:07.212Z,3.20
2023-02-23T09:23:35.964Z,3.30
2023-02-23T09:26:05.637Z,3.40
2023-02-23T09:28:36.092Z,3.40
2023-02-23T09:31:07.663Z,3.60
2023-02-23T09:33:36.422Z,3.80
2023-02-23T09:36:12.926Z,3.90
2023-02-23T09:38:41.801Z,4.00
2023-02-23T09:41:49.962Z,4.10
2023-02-23T09:44:30.010Z,4.10
2023-02-23T09:47:11.561Z,4.10
2023-02-23T09:49:43.858Z,4.10
2023-02-23T09:52:19.595Z,4.10
2023-02-23T09:54:48.581Z,4.10
2023-02-23T09:57:21.418Z,4.10
2023-02-23T09:59:50.144Z,4.20
2023-02-23T10:02:27.274Z,4.20
2023-02-23T10:05:01.017Z,4.30
2023-02-23T10:07:43.705Z,4.40
2023-02-23T10:10:24.639Z,4.50
2023-02-23T10:13:06.093Z,4.50
2023-02-23T10:15:42.047Z,4.70
2023-02-23T10:18:23.012Z,4.90
2023-02-23T10:20:59.774Z,4.90
2023-02-23T10:23:35.020Z,5.00
2023-02-23T10:26:08.874Z,5.10
2023-02-23T10:28:39.234Z,5.20
2023-02-23T10:31:24.746Z,5.30
2023-02-23T10:33:56.445Z,5.40
2023-02-23T10:36:35.362Z,5.50
2023-02-23T10:39:07.981Z,5.50
2023-02-23T10:41:37.077Z,5.60
2023-02-23T10:44:16.771Z,5.70
2023-02-23T10:46:47.981Z,5.70
2023-02-23T10:49:23.009Z,5.70
2023-02-23T10:51:52.462Z,5.70
2023-02-23T10:54:44.865Z,5.80
2023-02-23T10:57:20.985Z,5.70
2023-02-23T11:00:33.449Z,5.70
2023-02-23T11:03:04.686Z,5.60
2023-02-23T11:05:47.237Z,5.50
2023-02-23T11:08:34.437Z,5.50
2023-02-23T11:11:08.523Z,5.50
2023-02-23T11:13:42.680Z,5.50
2023-02-23T11:16:14.586Z,5.60
2023-02-23T11:18:45.067Z,5.60
2023-02-23T11:21:19.421Z,5.60
2023-02-23T11:23:51.156Z,5.60
2023-02-23T11:26:37.404Z,5.70
2023-02-23T11:29:16.567Z,5.80
2023-02-23T11:31:51.107Z,5.90
2023-02-23T11:34:26.052Z,6.00
2023-02-23T11:37:04.218Z,6.10
2023-02-23T11:39:33.022Z,6.00
2023-02-23T11:42:25.627Z,6.00
2023-02-23T11:45:04.053Z,6.00
2023-02-23T11:47:35.709Z,6.00
2023-02-23T11:50:06.361Z,6.00
2023-02-23T11:52:36.823Z,6.00
2023-02-23T11:55:09.016Z,6.10
2023-02-23T11:57:39.046Z,6.10
2023-02-23T12:00:15.569Z,6.20
2023-02-23T12:02:53.894Z,6.40
2023-02-23T12:05:25.366Z,6.50
2023-02-23T12:07:59.643Z,6.50
2023-02-23T12:10:32.441Z,6.50
2023-02-23T12:13:11.402Z,6.60
2023-02-23T12:15:49.287Z,6.60
2023-02-23T12:18:28.383Z,6.70
2023-02-23T12:21:02.488Z,6.70
2023-02-23T12:23:35.165Z,6.70
2023-02-23T12:26:07.776Z,6.80
2023-02-23T12:28:41.988Z,6.80
2023-02-23T12:31:24.868Z,6.80
2023-02-23T12:33:58.718Z,6.70
2023-02-23T12:36:35.363Z,6.70
2023-02-23T12:39:09.984Z,6.70
2023-02-23T12:41:44.188Z,6.60
2023-02-23T12:44:23.823Z,6.60
2023-02-23T12:46:55.269Z,6.70
2023-02-23T12:49:32.348Z,6.60
2023-02-23T12:52:10.742Z,6.70
2023-02-23T12:54:39.541Z,6.70
2023-02-23T12:57:16.302Z,6.70
2023-02-23T13:00:24.300Z,6.70
2023-02-23T13:03:08.798Z,6.80
2023-02-23T13:05:43.415Z,6.80
2023-02-23T13:08:22.292Z,6.80
2023-02-23T13:11:03.878Z,6.80
2023-02-23T13:13:39.113Z,6.80
2023-02-23T13:16:17.360Z,6.80
2023-02-23T13:18:51.603Z,6.70
2023-02-23T13:21:28.212Z,6.80
2023-02-23T13:24:01.363Z,6.80
2023-02-23T13:26:39.005Z,6.90
2023-02-23T13:29:16.568Z,6.90
2023-02-23T13:31:46.866Z,6.90
2023-02-23T13:34:26.598Z,6.90
2023-02-23T13:36:56.253Z,7.00
2023-02-23T13:39:48.019Z,7.00
2023-02-23T13:42:37.966Z,7.00
2023-02-23T13:45:33.504Z,7.00
2023-02-23T13:48:08.416Z,7.00
2023-02-23T13:50:47.220Z,7.00
2023-02-23T13:53:35.110Z,7.00
2023-02-23T13:56:08.594Z,6.90
2023-02-23T13:58:38.048Z,6.80
2023-02-23T14:01:12.364Z,6.70
2023-02-23T14:03:48.883Z,6.80
2023-02-23T14:06:20.959Z,6.80
2023-02-23T14:08:57.192Z,6.70
2023-02-23T14:11:52.401Z,6.60
2023-02-23T14:14:43.138Z,6.60
2023-02-23T14:17:28.235Z,6.60
2023-02-23T14:20:27.876Z,6.60
2023-02-23T14:23:29.688Z,6.50
2023-02-23T14:26:27.904Z,6.50
2023-02-23T14:29:12.734Z,6.50
2023-02-23T14:31:56.403Z,6.40
2023-02-23T14:34:26.012Z,6.30
2023-02-23T14:36:56.211Z,6.30
2023-02-23T14:39:30.019Z,6.30
2023-02-23T14:42:01.531Z,6.20
2023-02-23T14:44:31.968Z,6.20
2023-02-23T14:47:05.702Z,6.10
2023-02-23T14:49:38.074Z,6.10
2023-02-23T14:52:09.850Z,6.00
2023-02-23T14:54:41.972Z,6.00
2023-02-23T14:57:20.795Z,6.00
2023-02-23T14:59:55.623Z,5.80
2023-02-23T15:02:26.175Z,5.80
2023-02-23T15:04:55.498Z,5.70
2023-02-23T15:07:32.401Z,5.70
2023-02-23T15:10:06.989Z,5.60
2023-02-23T15:12:38.848Z,5.60
2023-02-23T15:15:17.384Z,5.60
2023-02-23T15:17:49.408Z,5.60
2023-02-23T15:20:20.405Z,5.60
2023-02-23T15:22:57.753Z,5.60
2023-02-23T15:25:36.550Z,5.60
2023-02-23T15:28:29.852Z,5.50
2023-02-23T15:31:02.097Z,5.40
2023-02-23T15:33:43.297Z,5.40
2023-02-23T15:36:21.345Z,5.30
2023-02-23T15:38:53.380Z,5.30
2023-02-23T15:41:30.620Z,5.20
2023-02-23T15:44:07.488Z,5.10
2023-02-23T15:46:38.056Z,5.00
2023-02-23T15:49:07.851Z,4.90
2023-02-23T15:51:39.568Z,4.80
2023-02-23T15:54:20.773Z,4.70
2023-02-23T15:56:54.838Z,4.50
2023-02-23T15:59:28.937Z,4.50
2023-02-23T16:02:00.188Z,4.40
2023-02-23T16:04:33.959Z,4.30
2023-02-23T16:07:16.152Z,4.20
2023-02-23T16:09:51.293Z,4.20
2023-02-23T16:12:26.262Z,4.10
2023-02-23T16:14:56.695Z,4.10
2023-02-23T16:17:30.480Z,3.90
2023-02-23T16:20:17.706Z,3.90
2023-02-23T16:22:47.913Z,3.90
2023-02-23T16:25:19.780Z,3.80
2023-02-23T16:27:59.621Z,3.80
2023-02-23T16:30:40.707Z,3.60
2023-02-23T16:33:19.948Z,3.60
2023-02-23T16:35:50.748Z,3.50
2023-02-23T16:38:25.923Z,3.50
2023-02-23T16:40:54.824Z,3.40
2023-02-23T16:43:24.872Z,3.30
2023-02-23T16:45:53.572Z,3.20
2023-02-23T16:48:23.099Z,3.20
2023-02-23T16:50:51.967Z,3.20
2023-02-23T16:53:20.487Z,3.20
2023-02-23T16:55:54.269Z,3.20
2023-02-23T16:58:27.240Z,3.10
2023-02-23T17:00:56.369Z,3.10
2023-02-23T17:03:27.158Z,3.10
2023-02-23T17:05:56.142Z,3.20
2023-02-23T17:08:24.814Z,3.20
2023-02-23T17:10:56.034Z,3.20
2023-02-23T17:13:29.261Z,3.20
2023-02-23T17:15:59.379Z,3.10
2023-02-23T17:18:29.610Z,3.10
2023-02-23T17:20:59.826Z,3.00
2023-02-23T17:23:39.162Z,3.00
2023-02-23T17:26:08.487Z,2.90
2023-02-23T17:28:38.530Z,2.90
2023-02-23T17:31:08.002Z,2.90
2023-02-23T17:33:37.969Z,2.90
2023-02-23T17:36:09.695Z,2.80
2023-02-23T17:38:38.765Z,2.80
2023-02-23T17:41:08.865Z,2.80
2023-02-23T17:43:38.971Z,2.80
2023-02-23T17:46:08.303Z,2.80
2023-02-23T17:48:37.097Z,2.70
2023-02-23T17:51:12.296Z,2.70
2023-02-23T17:53:41.691Z,2.80
2023-02-23T17:56:11.165Z,2.80
2023-02-23T17:58:43.345Z,2.90
2023-02-23T18:01:12.188Z,2.90
2023-02-23T18:03:48.408Z,2.90
2023-02-23T18:06:17.135Z,2.90
2023-02-23T18:08:45.983Z,3.00
2023-02-23T18:11:18.905Z,2.90
2023-02-23T18:13:51.449Z,2.90
2023-02-23T18:16:21.825Z,2.90
2023-02-23T18:18:50.922Z,3.00
2023-02-23T18:21:21.964Z,3.10
2023-02-23T18:23:51.022Z,3.10
2023-02-23T18:26:21.907Z,3.10
2023-02-23T18:28:52.659Z,3.10
2023-02-23T18:31:24.404Z,3.10
2023-02-23T18:33:57.462Z,3.20
2023-02-23T18:36:32.735Z,3.20
2023-02-23T18:39:02.171Z,3.40
2023-02-23T18:41:47.355Z,3.40
2023-02-23T18:44:22.168Z,3.40
2023-02-23T18:46:51.499Z,3.50
2023-02-23T18:49:22.211Z,3.40
2023-02-23T18:51:51.418Z,3.30
2023-02-23T18:54:22.732Z,3.00
2023-02-23T18:56:56.144Z,3.20
2023-02-23T18:59:26.390Z,3.30
2023-02-23T19:01:55.091Z,3.10
2023-02-23T19:04:23.780Z,3.10
2023-02-23T19:07:10.402Z,3.20
2023-02-23T19:09:41.472Z,3.10
2023-02-23T19:12:11.655Z,3.00
2023-02-23T19:14:49.902Z,3.00
2023-02-23T19:17:22.637Z,2.90
2023-02-23T19:19:51.524Z,2.90
2023-02-23T19:22:24.525Z,2.90
2023-02-23T19:24:53.084Z,3.00
2023-02-23T19:27:21.934Z,3.00
2023-02-23T19:29:52.059Z,3.10
2023-02-23T19:32:20.708Z,3.00
2023-02-23T19:34:49.635Z,3.00
2023-02-23T19:37:18.338Z,3.00
2023-02-23T19:39:47.237Z,2.90
2023-02-23T19:42:18.567Z,2.90
2023-02-23T19:44:47.324Z,2.90
2023-02-23T19:47:17.420Z,2.90
2023-02-23T19:49:46.240Z,2.90
2023-02-23T19:52:14.922Z,2.90
2023-02-23T19:54:44.931Z,2.90
2023-02-23T19:57:13.623Z,2.90
2023-02-23T19:59:42.922Z,2.90
2023-02-23T20:02:12.745Z,2.70
2023-02-23T20:04:43.212Z,2.90
2023-02-23T20:07:12.020Z,2.90
2023-02-23T20:09:40.797Z,2.90
2023-02-23T20:12:09.825Z,2.90
2023-02-23T20:14:39.684Z,2.80
2023-02-23T20:17:09.201Z,2.90
2023-02-23T20:19:37.782Z,2.90
2023-02-23T20:22:09.018Z,2.80
2023-02-23T20:24:40.039Z,2.80
2023-02-23T20:27:09.376Z,2.70
2023-02-23T20:29:38.002Z,2.70
2023-02-23T20:32:07.750Z,2.60
2023-02-23T20:34:39.483Z,2.60
2023-02-23T20:37:09.657Z,2.50
2023-02-23T20:39:38.484Z,2.40
2023-02-23T20:42:07.132Z,2.40
2023-02-23T20:44:35.758Z,2.40
2023-02-23T20:47:10.015Z,2.30
2023-02-23T20:49:39.262Z,2.30
2023-02-23T20:52:09.325Z,2.30
2023-02-23T20:54:40.030Z,2.20
2023-02-23T20:57:09.328Z,2.10
2023-02-23T20:59:49.799Z,2.10
2023-02-23T21:02:18.706Z,2.00
2023-02-23T21:04:48.309Z,2.10
2023-02-23T21:07:18.723Z,2.00
2023-02-23T21:09:47.650Z,2.00
2023-02-23T21:12:16.376Z,1.90
2023-02-23T21:14:44.864Z,1.90
2023-02-23T21:17:13.464Z,1.90
2023-02-23T21:19:41.995Z,1.90
2023-02-23T21:22:14.789Z,1.90
2023-02-23T21:24:45.379Z,1.90
2023-02-23T21:27:14.025Z,1.90
2023-02-23T21:29:43.244Z,2.00
2023-02-23T21:32:16.969Z,2.00
2023-02-23T21:34:46.074Z,2.00
2023-02-23T21:37:14.590Z,2.00
2023-02-23T21:39:46.842Z,2.00
2023-02-23T21:42:15.846Z,2.10
2023-02-23T21:44:45.890Z,2.00
2023-02-23T21:47:15.182Z,2.00
2023-02-23T21:49:49.476Z,2.10
2023-02-23T21:52:18.665Z,2.10
2023-02-23T21:54:52.085Z,1.90
2023-02-23T21:57:22.890Z,2.20
2023-02-23T21:59:52.314Z,2.20
2023-02-23T22:02:21.615Z,2.30
2023-02-23T22:04:54.163Z,2.30
2023-02-23T22:07:23.142Z,2.30
2023-02-23T22:09:56.241Z,2.40
2023-02-23T22:12:28.015Z,2.40
2023-02-23T22:14:57.160Z,2.30
2023-02-23T22:17:26.378Z,2.30
2023-02-23T22:19:55.278Z,2.30
2023-02-23T22:22:23.768Z,2.30
2023-02-23T22:24:52.492Z,2.30
2023-02-23T22:27:22.666Z,2.30
2023-02-23T22:29:52.111Z,2.40
2023-02-23T22:32:21.780Z,2.40
2023-02-23T22:34:50.406Z,2.50
2023-02-23T22:37:22.176Z,2.60
2023-02-23T22:39:51.237Z,2.60
2023-02-23T22:42:19.865Z,2.60
2023-02-23T22:44:50.333Z,2.70
2023-02-23T22:47:19.015Z,2.60
2023-02-23T22:49:48.584Z,2.70
2023-02-23T22:52:17.112Z,2.70
2023-02-23T22:54:48.203Z,2.80
2023-02-23T22:57:16.755Z,2.80
2023-02-23T22:59:54.861Z,2.90
2023-02-23T23:02:24.968Z,2.90
2023-02-23T23:04:54.411Z,2.90
2023-02-23T23:07:22.996Z,3.00
2023-02-23T23:09:51.906Z,3.00
2023-02-23T23:12:20.454Z,3.00
2023-02-23T23:14:49.070Z,3.10
2023-02-23T23:17:17.978Z,3.00
2023-02-23T23:19:50.480Z,3.00
2023-02-23T23:22:20.382Z,3.00
2023-02-23T23:24:49.208Z,2.90
2023-02-23T23:27:19.890Z,2.90
2023-02-23T23:29:50.071Z,3.00
2023-02-23T23:32:27.938Z,2.90
2023-02-23T23:35:00.103Z,2.90
2023-02-23T23:37:29.712Z,2.90
2023-02-23T23:40:00.410Z,2.90
2023-02-23T23:42:28.940Z,2.90
2023-02-23T23:44:57.827Z,2.80
2023-02-23T23:47:27.268Z,2.80
2023-02-23T23:49:57.290Z,2.80
2023-02-23T23:52:26.010Z,2.80
2023-02-23T23:54:54.702Z,2.80
2023-02-23T23:57:23.398Z,2.80
2023-02-23T23:59:52.238Z,2.90
